Time;durP1;ratioP1;P1;durP2;ratioP2;P2;SDS_P1;SDS_P2;PMS_P1;PMS_P2;Temp;Humidity;BMP_temperature;BMP_pressure;BME280_temperature;BME280_humidity;BME280_pressure;Samples;Min_cycle;Max_cycle;Signal;HPM_P1;HPM_P2
2021/07/26 00:01:33;;;;;;;14.00;12.47;;;18.70;99.90;;;;;;5077686;28;20182;-91
2021/07/26 00:03:59;;;;;;;13.03;11.83;;;18.70;99.90;;;;;;5074515;28;20441;-91
2021/07/26 00:06:25;;;;;;;13.60;12.20;;;18.70;99.90;;;;;;5053405;28;20219;-91
2021/07/26 00:08:50;;;;;;;13.30;12.00;;;18.70;99.90;;;;;;5054414;28;20417;-93
2021/07/26 00:11:16;;;;;;;13.20;11.90;;;18.60;99.90;;;;;;5058027;28;20174;-92
2021/07/26 00:13:42;;;;;;;14.33;12.97;;;18.60;99.90;;;;;;5057475;28;20272;-93
2021/07/26 00:16:08;;;;;;;13.97;12.50;;;18.60;99.90;;;;;;5057046;28;20202;-93
2021/07/26 00:18:33;;;;;;;14.70;13.20;;;18.50;99.90;;;;;;5057256;28;20661;-92
2021/07/26 00:21:00;;;;;;;15.80;14.20;;;18.60;99.90;;;;;;5056980;28;20438;-92
2021/07/26 00:23:26;;;;;;;14.10;12.73;;;18.60;99.90;;;;;;5057125;28;20573;-93
2021/07/26 00:25:53;;;;;;;15.00;13.50;;;18.50;99.90;;;;;;5056777;28;20471;-93
2021/07/26 00:28:18;;;;;;;13.67;12.47;;;18.40;99.90;;;;;;5056775;28;20449;-93
2021/07/26 00:30:44;;;;;;;16.20;14.60;;;18.50;99.90;;;;;;5056285;28;20464;-92
2021/07/26 00:36:33;;;;;;;15.07;13.67;;;18.40;99.90;;;;;;5057735;28;20206;-92
2021/07/26 00:38:58;;;;;;;15.57;14.07;;;18.40;99.90;;;;;;5057018;28;20415;-92
2021/07/26 00:41:24;;;;;;;15.03;13.73;;;18.40;99.90;;;;;;5057140;28;20440;-91
2021/07/26 00:43:50;;;;;;;14.57;13.00;;;18.30;99.90;;;;;;5057716;28;20648;-93
2021/07/26 00:46:16;;;;;;;15.80;14.33;;;18.30;99.90;;;;;;5056722;28;20208;-92
2021/07/26 00:48:43;;;;;;;15.60;14.10;;;18.40;99.90;;;;;;5056639;28;20173;-92
2021/07/26 00:51:09;;;;;;;15.60;14.13;;;18.30;99.90;;;;;;5056588;28;20424;-92
2021/07/26 00:53:34;;;;;;;14.97;13.53;;;18.30;99.90;;;;;;5056700;28;20915;-92
2021/07/26 00:56:01;;;;;;;14.67;12.70;;;18.40;99.90;;;;;;5056685;28;20216;-91
2021/07/26 00:58:26;;;;;;;13.50;12.20;;;18.40;99.90;;;;;;5056391;28;20171;-92
2021/07/26 01:00:52;;;;;;;15.63;13.97;;;18.40;99.90;;;;;;5056270;28;20440;-92
2021/07/26 01:03:18;;;;;;;14.87;13.37;;;18.30;99.90;;;;;;5056353;28;20171;-91
2021/07/26 01:05:43;;;;;;;15.70;14.03;;;18.40;99.90;;;;;;5056612;28;20185;-92
2021/07/26 01:08:09;;;;;;;13.93;12.53;;;18.30;99.90;;;;;;5057185;28;20247;-92
2021/07/26 01:10:34;;;;;;;13.77;12.47;;;18.20;99.90;;;;;;5058874;28;20242;-91
2021/07/26 01:13:00;;;;;;;14.33;12.93;;;18.20;99.90;;;;;;5057336;28;20185;-93
2021/07/26 01:15:26;;;;;;;15.40;13.77;;;18.20;99.90;;;;;;5057390;28;20720;-91
2021/07/26 01:18:14;;;;;;;15.67;14.20;;;18.10;99.90;;;;;;5056771;28;20247;-92
2021/07/26 01:20:40;;;;;;;15.20;13.80;;;18.10;99.90;;;;;;5056615;28;20423;-90
2021/07/26 01:23:06;;;;;;;14.87;13.37;;;18.00;99.90;;;;;;5056315;28;20450;-90
2021/07/26 01:25:35;;;;;;;15.30;13.90;;;18.00;99.90;;;;;;5057155;28;20476;-91
2021/07/26 01:28:01;;;;;;;14.87;13.17;;;18.00;99.90;;;;;;5056259;28;20451;-90
2021/07/26 01:30:26;;;;;;;16.13;14.57;;;18.00;99.90;;;;;;5055330;28;20419;-91
2021/07/26 01:32:52;;;;;;;14.23;12.90;;;18.00;99.90;;;;;;5055503;28;20192;-91
2021/07/26 01:35:17;;;;;;;15.10;13.67;;;18.00;99.90;;;;;;5055538;28;20216;-92
2021/07/26 01:37:43;;;;;;;15.43;13.87;;;18.00;99.90;;;;;;5055491;28;20170;-92
2021/07/26 01:40:09;;;;;;;16.10;14.50;;;18.00;99.90;;;;;;5056131;28;20180;-94
2021/07/26 01:42:42;;;;;;;15.93;14.27;;;18.00;99.90;;;;;;5055661;28;20252;-91
2021/07/26 01:45:08;;;;;;;17.00;15.30;;;18.00;99.90;;;;;;5055140;28;20421;-90
2021/07/26 01:47:39;;;;;;;14.97;13.50;;;18.00;99.90;;;;;;5055420;28;20416;-92
2021/07/26 01:50:11;;;;;;;17.27;15.67;;;18.00;99.90;;;;;;5055251;28;20481;-93
2021/07/26 01:52:37;;;;;;;15.70;14.20;;;18.00;99.90;;;;;;5055394;28;20490;-92
2021/07/26 01:55:03;;;;;;;15.53;14.10;;;18.00;99.90;;;;;;5056228;28;21071;-91
2021/07/26 01:57:28;;;;;;;15.47;13.97;;;18.10;99.90;;;;;;5054965;28;20543;-91
2021/07/26 01:59:54;;;;;;;15.10;13.60;;;18.10;99.90;;;;;;5054968;28;20431;-92
2021/07/26 02:02:20;;;;;;;16.90;15.30;;;18.00;99.90;;;;;;5055228;28;20207;-91
2021/07/26 02:04:46;;;;;;;15.80;14.33;;;18.10;99.90;;;;;;5055169;28;20428;-92
2021/07/26 02:07:11;;;;;;;17.13;15.27;;;18.20;99.90;;;;;;5054848;28;20184;-90
2021/07/26 02:09:37;;;;;;;14.53;13.23;;;18.20;99.90;;;;;;5054905;28;20258;-92
2021/07/26 02:12:03;;;;;;;16.77;15.27;;;18.10;99.90;;;;;;5054914;28;20733;-92
2021/07/26 02:14:29;;;;;;;18.90;16.87;;;18.10;99.90;;;;;;5054657;28;20187;-91
2021/07/26 02:16:54;;;;;;;17.90;16.10;;;18.40;99.90;;;;;;5054837;28;20429;-93
2021/07/26 02:19:20;;;;;;;18.73;17.13;;;18.50;99.90;;;;;;5054704;28;20177;-92
2021/07/26 02:21:46;;;;;;;17.70;15.90;;;18.50;99.90;;;;;;5054580;28;20243;-90
2021/07/26 02:24:12;;;;;;;18.23;16.43;;;18.60;99.90;;;;;;5056901;28;20373;-90
2021/07/26 02:26:37;;;;;;;17.27;15.70;;;18.50;99.90;;;;;;5057847;28;20185;-92
2021/07/26 02:29:05;;;;;;;17.63;16.03;;;18.40;99.90;;;;;;5057514;28;20177;-91
2021/07/26 02:31:30;;;;;;;18.50;16.63;;;18.40;99.90;;;;;;5053731;28;20231;-93
2021/07/26 02:33:56;;;;;;;18.10;16.40;;;18.50;99.90;;;;;;5057662;28;20422;-91
2021/07/26 02:36:21;;;;;;;15.93;14.53;;;18.40;99.90;;;;;;5057497;28;20237;-90
2021/07/26 02:38:47;;;;;;;18.13;16.43;;;18.30;99.90;;;;;;5057513;28;20237;-90
2021/07/26 02:41:14;;;;;;;18.63;16.80;;;18.20;99.90;;;;;;5053518;28;20186;-91
2021/07/26 02:43:40;;;;;;;17.87;16.00;;;18.10;99.90;;;;;;5048540;28;20359;-90
2021/07/26 02:46:08;;;;;;;18.00;16.23;;;18.10;99.90;;;;;;5040333;28;20562;-92
2021/07/26 02:48:34;;;;;;;19.43;17.63;;;18.20;99.90;;;;;;5037080;28;20419;-90
2021/07/26 02:50:59;;;;;;;18.33;16.63;;;18.20;99.90;;;;;;5037179;28;20430;-91
2021/07/26 02:53:33;;;;;;;19.50;17.60;;;18.30;99.90;;;;;;5038169;28;20408;-92
2021/07/26 02:55:59;;;;;;;19.07;17.10;;;18.20;99.90;;;;;;5037519;28;20227;-92
2021/07/26 02:58:24;;;;;;;19.00;16.73;;;18.20;99.90;;;;;;5038911;28;20762;-92
2021/07/26 03:00:50;;;;;;;18.30;16.50;;;18.10;99.90;;;;;;5049450;28;20185;-91
2021/07/26 03:03:16;;;;;;;16.30;14.80;;;17.90;99.90;;;;;;5041077;28;20624;-90
2021/07/26 03:05:42;;;;;;;18.10;16.40;;;17.80;99.90;;;;;;5049789;28;20181;-91
2021/07/26 03:08:08;;;;;;;16.10;14.50;;;17.70;99.90;;;;;;5037561;28;20926;-91
2021/07/26 03:10:34;;;;;;;17.83;16.17;;;17.60;99.90;;;;;;5043264;28;20238;-94
2021/07/26 03:12:59;;;;;;;17.97;16.30;;;17.50;99.90;;;;;;5039090;28;20180;-89
2021/07/26 03:15:25;;;;;;;18.80;17.03;;;17.50;99.90;;;;;;5037174;28;20303;-92
2021/07/26 03:17:51;;;;;;;19.10;17.30;;;17.50;99.90;;;;;;5037267;28;20275;-91
2021/07/26 03:20:17;;;;;;;19.93;17.90;;;17.40;99.90;;;;;;5036971;28;20184;-91
2021/07/26 03:23:10;;;;;;;18.33;16.50;;;17.50;99.90;;;;;;5036740;28;20215;-90
2021/07/26 03:25:41;;;;;;;18.50;16.67;;;17.50;99.90;;;;;;5047482;28;20260;-90
2021/07/26 03:28:07;;;;;;;20.00;18.00;;;17.50;99.90;;;;;;5053606;28;20934;-91
2021/07/26 03:30:33;;;;;;;18.40;16.57;;;17.50;99.90;;;;;;5053606;28;20417;-90
2021/07/26 03:32:59;;;;;;;18.77;16.83;;;17.40;99.90;;;;;;5053383;28;20424;-90
2021/07/26 03:35:25;;;;;;;18.97;17.17;;;17.30;99.90;;;;;;5055227;28;20211;-94
2021/07/26 03:37:52;;;;;;;16.27;14.67;;;17.30;99.90;;;;;;5053911;28;20244;-89
2021/07/26 03:40:19;;;;;;;17.20;15.70;;;17.30;99.90;;;;;;5053412;28;20963;-91
2021/07/26 03:42:45;;;;;;;18.30;16.50;;;17.30;99.90;;;;;;5053668;28;20410;-92
2021/07/26 03:45:13;;;;;;;18.50;16.80;;;17.30;99.90;;;;;;5053385;28;20515;-91
2021/07/26 03:47:40;;;;;;;19.83;18.03;;;17.30;99.90;;;;;;5053138;28;20478;-89
2021/07/26 03:50:07;;;;;;;18.70;17.00;;;17.40;99.90;;;;;;5053350;28;20411;-90
2021/07/26 03:52:51;;;;;;;17.83;16.23;;;17.40;99.90;;;;;;5052791;28;20415;-90
2021/07/26 03:55:19;;;;;;;18.67;16.87;;;17.50;99.90;;;;;;5054382;28;20470;-92
2021/07/26 03:57:46;;;;;;;19.63;17.73;;;17.50;99.90;;;;;;5053264;28;20423;-91
2021/07/26 04:00:12;;;;;;;20.00;18.20;;;17.60;99.90;;;;;;5052440;28;20428;-92
2021/07/26 04:02:39;;;;;;;18.33;16.53;;;17.80;99.90;;;;;;5052927;28;20426;-92
2021/07/26 04:05:09;;;;;;;18.37;16.50;;;17.90;99.90;;;;;;5052872;28;20449;-90
2021/07/26 04:07:38;;;;;;;20.47;18.33;;;18.00;99.90;;;;;;5053003;28;20446;-92
2021/07/26 04:10:07;;;;;;;18.50;16.70;;;18.00;99.90;;;;;;5052802;28;20983;-91
2021/07/26 04:12:34;;;;;;;18.87;17.00;;;18.00;99.90;;;;;;5059436;28;20939;-92
2021/07/26 04:15:06;;;;;;;20.90;18.00;;;18.10;99.90;;;;;;5052657;28;20454;-91
2021/07/26 04:17:32;;;;;;;22.43;20.23;;;18.40;99.90;;;;;;5052806;28;20526;-91
2021/07/26 04:19:58;;;;;;;20.40;18.47;;;18.60;99.90;;;;;;5052859;28;20907;-91
2021/07/26 04:22:23;;;;;;;22.63;20.53;;;18.70;99.90;;;;;;5052749;28;20184;-91
2021/07/26 04:24:49;;;;;;;22.00;19.90;;;18.80;99.90;;;;;;5050520;28;20236;-92
2021/07/26 04:27:14;;;;;;;22.23;20.33;;;18.80;99.90;;;;;;5052701;28;20553;-93
2021/07/26 04:29:40;;;;;;;23.57;21.17;;;18.70;99.90;;;;;;5052620;28;20181;-93
2021/07/26 04:32:07;;;;;;;23.50;21.10;;;18.80;99.90;;;;;;5052769;28;20176;-92
2021/07/26 04:34:33;;;;;;;23.70;21.47;;;18.80;99.90;;;;;;5052592;28;20184;-93
2021/07/26 04:36:59;;;;;;;21.70;19.50;;;18.90;99.90;;;;;;5052552;28;20431;-91
2021/07/26 04:39:24;;;;;;;22.43;20.20;;;18.90;99.90;;;;;;5052561;28;20175;-91
2021/07/26 04:41:50;;;;;;;23.37;20.93;;;19.00;99.90;;;;;;5053728;28;20191;-91
2021/07/26 04:44:15;;;;;;;21.47;19.27;;;19.00;99.90;;;;;;5053715;28;20180;-91
2021/07/26 04:46:41;;;;;;;22.13;19.93;;;19.10;99.90;;;;;;5055233;28;20217;-93
2021/07/26 04:49:06;;;;;;;25.13;21.13;;;19.10;99.90;;;;;;5054576;28;20546;-90
2021/07/26 04:51:32;;;;;;;21.33;19.17;;;19.10;99.90;;;;;;5052871;28;20199;-91
2021/07/26 04:53:57;;;;;;;23.60;21.43;;;19.20;99.90;;;;;;5052642;28;20191;-91
2021/07/26 04:56:23;;;;;;;21.43;19.63;;;19.30;99.90;;;;;;5055417;28;20686;-91
2021/07/26 04:58:48;;;;;;;22.30;19.70;;;19.30;99.90;;;;;;5056052;28;20258;-91
2021/07/26 05:01:14;;;;;;;22.20;20.00;;;19.30;99.90;;;;;;5057289;28;20164;-91
2021/07/26 05:03:40;;;;;;;24.67;22.30;;;19.30;99.90;;;;;;5059392;28;20179;-92
2021/07/26 05:06:06;;;;;;;22.47;20.27;;;19.40;99.90;;;;;;5059762;28;20180;-91
2021/07/26 05:08:32;;;;;;;23.90;21.70;;;19.60;99.90;;;;;;5061781;28;20188;-91
2021/07/26 05:10:58;;;;;;;21.73;19.73;;;19.70;99.90;;;;;;5061414;28;20464;-91
2021/07/26 05:13:24;;;;;;;22.63;20.50;;;19.80;99.90;;;;;;5059962;28;20644;-93
2021/07/26 05:15:49;;;;;;;21.77;19.60;;;19.90;99.90;;;;;;5057730;28;20204;-91
2021/07/26 05:18:15;;;;;;;22.97;20.77;;;20.00;99.90;;;;;;5058275;28;20272;-92
2021/07/26 05:20:41;;;;;;;22.27;20.17;;;20.00;99.90;;;;;;5056041;28;20185;-92
2021/07/26 05:23:12;;;;;;;22.43;20.30;;;20.20;99.90;;;;;;5052490;28;20201;-90
2021/07/26 05:25:45;;;;;;;22.53;20.53;;;20.10;99.90;;;;;;5039129;28;20259;-91
2021/07/26 05:28:12;;;;;;;22.67;20.37;;;20.00;99.90;;;;;;5041937;28;20443;-92
2021/07/26 05:30:38;;;;;;;22.20;20.23;;;20.00;99.90;;;;;;5041297;28;20789;-92
2021/07/26 05:33:04;;;;;;;21.57;19.57;;;20.00;99.90;;;;;;5040812;28;20430;-93
2021/07/26 05:35:31;;;;;;;21.77;19.77;;;20.10;99.90;;;;;;5038380;28;20986;-92
2021/07/26 05:37:56;;;;;;;22.73;20.63;;;20.20;99.90;;;;;;5041148;28;20180;-92
2021/07/26 05:40:22;;;;;;;23.07;20.87;;;20.20;99.90;;;;;;5052727;28;20525;-91
2021/07/26 05:42:48;;;;;;;22.80;20.70;;;20.20;99.90;;;;;;5059240;28;20175;-91
2021/07/26 05:45:13;;;;;;;22.10;20.10;;;20.30;99.90;;;;;;5049036;28;20176;-92
2021/07/26 05:47:39;;;;;;;21.87;19.97;;;20.40;99.90;;;;;;5048688;28;20184;-92
2021/07/26 05:50:05;;;;;;;21.43;19.43;;;20.40;99.90;;;;;;5051010;28;20172;-93
2021/07/26 05:52:31;;;;;;;21.10;19.30;;;20.40;99.90;;;;;;5046024;28;20191;-92
2021/07/26 05:54:57;;;;;;;22.90;20.53;;;20.60;99.90;;;;;;5038034;28;20475;-91
2021/07/26 05:57:24;;;;;;;22.70;20.47;;;20.50;99.90;;;;;;5045906;28;20169;-92
2021/07/26 05:59:53;;;;;;;22.50;20.40;;;20.30;99.90;;;;;;5037671;28;20227;-91
2021/07/26 06:02:18;;;;;;;21.73;19.73;;;20.20;99.90;;;;;;5054538;28;20430;-91
2021/07/26 06:04:44;;;;;;;20.60;18.33;;;20.50;99.90;;;;;;5049049;28;20514;-92
2021/07/26 06:07:10;;;;;;;19.40;17.90;;;20.60;99.90;;;;;;5048696;28;20583;-92
2021/07/26 06:09:35;;;;;;;20.43;18.53;;;20.70;99.90;;;;;;5045764;28;20177;-92
2021/07/26 06:12:01;;;;;;;21.17;19.07;;;20.80;99.90;;;;;;5047888;28;20665;-92
2021/07/26 06:14:26;;;;;;;21.47;19.23;;;20.80;99.90;;;;;;5052045;28;20176;-90
2021/07/26 06:16:53;;;;;;;20.10;18.30;;;21.40;99.90;;;;;;5047269;28;20218;-91
2021/07/26 06:19:20;;;;;;;20.67;18.67;;;21.70;99.90;;;;;;5051525;28;20176;-92
2021/07/26 06:21:52;;;;;;;19.30;17.50;;;21.60;99.90;;;;;;5049496;28;20510;-92
2021/07/26 06:24:21;;;;;;;18.20;16.40;;;21.70;99.90;;;;;;5037984;28;20496;-90
2021/07/26 06:26:47;;;;;;;20.20;18.30;;;22.10;99.90;;;;;;5057444;28;20421;-92
2021/07/26 06:29:13;;;;;;;18.53;16.77;;;22.50;99.90;;;;;;5046956;28;20417;-91
2021/07/26 06:31:40;;;;;;;18.77;16.23;;;23.00;99.90;;;;;;5056859;28;20413;-92
2021/07/26 06:34:06;;;;;;;17.47;15.60;;;23.40;99.90;;;;;;5038133;28;20480;-92
2021/07/26 06:36:32;;;;;;;16.13;14.63;;;24.40;99.90;;;;;;5037826;28;20558;-90
2021/07/26 06:38:58;;;;;;;15.17;13.77;;;25.80;99.90;;;;;;5037795;28;20407;-92
2021/07/26 06:41:24;;;;;;;15.93;14.63;;;26.80;99.90;;;;;;5037491;28;20427;-90
2021/07/26 06:43:50;;;;;;;17.47;14.23;;;27.50;99.90;;;;;;5037313;28;20712;-93
2021/07/26 06:46:16;;;;;;;15.37;13.87;;;27.90;99.90;;;;;;5037468;28;20434;-93
2021/07/26 06:48:41;;;;;;;12.83;11.63;;;27.60;99.90;;;;;;5037352;28;20420;-90
2021/07/26 06:51:07;;;;;;;11.90;10.80;;;27.20;99.90;;;;;;5037292;28;20177;-90
2021/07/26 06:53:33;;;;;;;11.13;10.13;;;28.00;99.90;;;;;;5037440;28;20177;-92
2021/07/26 06:56:04;;;;;;;10.10;9.20;;;29.00;1.00;;;;;;5037485;28;20303;-94
2021/07/26 06:58:29;;;;;;;11.03;10.00;;;30.10;99.90;;;;;;5037160;28;20188;-91
2021/07/26 07:00:55;;;;;;;10.40;9.40;;;30.90;8.90;;;;;;5037184;28;20425;-91
2021/07/26 07:03:20;;;;;;;10.47;9.50;;;31.00;1.00;;;;;;5037143;28;20307;-93
2021/07/26 07:05:46;;;;;;;9.77;8.97;;;29.80;13.30;;;;;;5037307;28;20178;-91
2021/07/26 07:08:11;;;;;;;10.27;9.40;;;28.10;99.90;;;;;;5037165;28;20181;-92
2021/07/26 07:10:37;;;;;;;12.17;11.07;;;27.70;99.90;;;;;;5042476;28;20252;-92
2021/07/26 07:13:02;;;;;;;10.83;9.83;;;27.50;99.90;;;;;;5049045;28;20165;-94
2021/07/26 07:15:30;;;;;;;11.70;9.73;;;29.70;99.90;;;;;;5048650;28;20220;-92
2021/07/26 07:17:55;;;;;;;8.93;8.10;;;30.70;56.50;;;;;;5042985;28;20231;-96
2021/07/26 07:20:21;;;;;;;8.87;8.17;;;29.20;99.90;;;;;;5038322;28;20420;-91
2021/07/26 07:22:46;;;;;;;9.33;8.43;;;29.30;1.00;;;;;;5052530;28;20653;-93
2021/07/26 07:25:12;;;;;;;9.90;8.90;;;27.90;99.90;;;;;;5056525;28;20311;-93
2021/07/26 07:27:38;;;;;;;8.03;7.33;;;27.20;99.90;;;;;;5056745;28;20286;-92
2021/07/26 07:30:04;;;;;;;7.77;6.97;;;27.60;99.90;;;;;;5056679;28;20245;-93
2021/07/26 07:32:32;;;;;;;7.30;6.80;;;27.00;99.90;;;;;;5057515;28;20169;-93
2021/07/26 07:34:57;;;;;;;7.10;6.50;;;26.10;99.90;;;;;;5056947;28;20459;-92
2021/07/26 07:37:25;;;;;;;7.17;6.57;;;25.40;99.90;;;;;;5075181;28;20510;-90
2021/07/26 07:39:50;;;;;;;6.77;6.17;;;24.80;99.90;;;;;;5056572;28;20171;-91
2021/07/26 07:42:19;;;;;;;6.87;6.27;;;24.60;99.90;;;;;;5070198;28;20465;-92
2021/07/26 07:44:47;;;;;;;6.83;6.13;;;24.30;99.90;;;;;;5073359;28;20226;-89
2021/07/26 07:47:14;;;;;;;8.30;6.80;;;24.20;99.90;;;;;;5073215;28;20511;-93
2021/07/26 07:49:42;;;;;;;9.27;6.73;;;24.10;99.90;;;;;;5068574;28;20896;-91
2021/07/26 07:52:11;;;;;;;8.10;6.97;;;23.90;99.90;;;;;;5055371;28;20525;-88
2021/07/26 07:54:36;;;;;;;6.60;6.00;;;23.80;99.90;;;;;;5073975;28;20506;-91
2021/07/26 07:57:02;;;;;;;9.90;7.23;;;23.70;99.90;;;;;;5055679;28;20553;-91
2021/07/26 07:59:29;;;;;;;8.23;7.43;;;23.60;99.90;;;;;;5055130;28;20176;-84
2021/07/26 08:01:54;;;;;;;8.40;6.93;;;23.60;99.90;;;;;;5072335;28;20175;-86
2021/07/26 08:04:20;;;;;;;7.90;6.90;;;23.40;99.90;;;;;;5072747;28;20422;-88
2021/07/26 08:06:46;;;;;;;7.80;7.10;;;23.30;99.90;;;;;;5072839;28;20179;-86
2021/07/26 08:09:11;;;;;;;9.93;8.23;;;23.20;99.90;;;;;;5072855;28;20179;-86
2021/07/26 08:11:37;;;;;;;8.60;7.37;;;23.10;99.90;;;;;;5072845;28;20179;-87
2021/07/26 08:14:03;;;;;;;8.83;6.53;;;23.10;99.90;;;;;;5072225;28;20223;-88
2021/07/26 08:16:29;;;;;;;10.73;7.87;;;22.90;99.90;;;;;;5072705;28;20477;-85
2021/07/26 08:18:56;;;;;;;8.67;7.67;;;22.70;99.90;;;;;;5072726;28;20201;-85
2021/07/26 08:21:22;;;;;;;9.67;8.77;;;22.40;99.90;;;;;;5072657;28;20226;-85
2021/07/26 08:23:48;;;;;;;11.83;8.70;;;22.20;99.90;;;;;;5072721;28;20421;-84
2021/07/26 08:26:13;;;;;;;10.23;9.30;;;21.80;99.90;;;;;;5072855;28;20269;-85
2021/07/26 08:28:39;;;;;;;10.07;8.50;;;21.60;99.90;;;;;;5054337;28;20181;-87
2021/07/26 08:31:04;;;;;;;8.10;6.33;;;21.50;99.90;;;;;;5075524;28;20170;-86
2021/07/26 08:33:30;;;;;;;7.47;6.70;;;21.40;99.90;;;;;;5057593;28;20307;-89
2021/07/26 08:35:57;;;;;;;8.63;7.10;;;21.20;99.90;;;;;;5059655;28;20210;-87
2021/07/26 08:38:23;;;;;;;6.93;6.23;;;21.10;99.90;;;;;;5070747;28;20674;-85
2021/07/26 08:40:49;;;;;;;8.03;6.87;;;21.10;99.90;;;;;;5089352;28;20415;-85
2021/07/26 08:43:15;;;;;;;6.50;5.90;;;21.00;99.90;;;;;;5084156;28;20518;-83
2021/07/26 08:45:41;;;;;;;6.47;5.83;;;20.80;99.90;;;;;;5094542;28;20427;-91
2021/07/26 08:48:08;;;;;;;7.43;6.70;;;20.80;99.90;;;;;;5081570;28;20276;-87
2021/07/26 08:50:35;;;;;;;7.90;7.10;;;20.90;99.90;;;;;;5071103;28;20173;-87
2021/07/26 08:53:03;;;;;;;7.33;6.43;;;20.80;99.90;;;;;;5067943;28;20438;-87
2021/07/26 08:55:29;;;;;;;8.60;6.10;;;20.70;99.90;;;;;;5082538;28;20500;-91
2021/07/26 08:57:56;;;;;;;9.13;7.23;;;20.70;99.90;;;;;;5060669;28;20821;-91
2021/07/26 09:00:23;;;;;;;11.20;7.37;;;20.60;99.90;;;;;;5062327;28;20461;-88
2021/07/26 09:02:50;;;;;;;8.73;7.83;;;20.60;99.90;;;;;;5078656;28;20437;-90
2021/07/26 09:05:15;;;;;;;9.83;8.20;;;20.50;99.90;;;;;;5055433;28;20926;-85
2021/07/26 09:07:43;;;;;;;9.30;8.40;;;20.40;99.90;;;;;;5054889;28;20430;-90
2021/07/26 09:10:25;;;;;;;8.80;7.00;;;20.20;99.90;;;;;;5056849;28;20220;-90
2021/07/26 09:12:56;;;;;;;7.80;6.70;;;20.20;99.90;;;;;;5058400;28;20404;-90
2021/07/26 09:15:30;;;;;;;8.50;7.70;;;20.00;99.90;;;;;;5040640;28;20520;-90
2021/07/26 09:18:03;;;;;;;7.87;6.57;;;19.90;99.90;;;;;;5062074;28;20912;-91
2021/07/26 09:20:31;;;;;;;8.50;7.60;;;19.90;99.90;;;;;;5038513;28;20422;-84
2021/07/26 09:23:17;;;;;;;9.63;7.50;;;19.90;99.90;;;;;;5056332;28;20921;-89
2021/07/26 09:25:45;;;;;;;9.27;7.20;;;20.00;99.90;;;;;;5058986;28;20461;-84
2021/07/26 09:28:20;;;;;;;8.60;7.60;;;20.10;99.90;;;;;;5068007;28;20750;-87
2021/07/26 09:30:49;;;;;;;7.60;6.70;;;20.00;99.90;;;;;;5064321;28;20437;-88
2021/07/26 09:33:18;;;;;;;8.87;6.20;;;19.80;99.90;;;;;;5064292;28;20778;-83
2021/07/26 09:35:44;;;;;;;9.90;6.90;;;19.80;99.90;;;;;;5060067;28;20466;-87
2021/07/26 09:38:10;;;;;;;9.10;6.97;;;19.60;99.90;;;;;;5055773;28;20816;-85
2021/07/26 09:40:36;;;;;;;12.90;8.03;;;19.50;99.90;;;;;;5060645;28;20184;-84
2021/07/26 09:43:20;;;;;;;10.73;6.80;;;19.40;99.90;;;;;;5064134;28;20435;-90
2021/07/26 09:45:48;;;;;;;9.37;7.87;;;19.30;99.90;;;;;;5055732;28;20209;-86
2021/07/26 09:48:15;;;;;;;9.60;7.13;;;19.30;99.90;;;;;;5055371;28;20415;-85
2021/07/26 09:50:44;;;;;;;8.10;6.17;;;19.20;99.90;;;;;;5054817;28;21016;-83
2021/07/26 09:53:20;;;;;;;7.87;6.37;;;19.20;99.90;;;;;;5054638;28;20827;-84
2021/07/26 09:55:49;;;;;;;8.07;6.93;;;19.10;99.90;;;;;;5063213;28;20498;-84
2021/07/26 09:58:17;;;;;;;8.80;7.00;;;19.20;99.90;;;;;;5075658;28;20525;-93
2021/07/26 10:00:44;;;;;;;13.00;7.00;;;19.20;99.90;;;;;;5077052;28;20427;-90
2021/07/26 10:03:12;;;;;;;10.57;7.40;;;19.10;99.90;;;;;;5074936;28;20409;-84
2021/07/26 10:05:39;;;;;;;7.70;6.30;;;19.20;99.90;;;;;;5074719;28;20416;-82
2021/07/26 10:08:06;;;;;;;8.20;7.40;;;19.20;99.90;;;;;;5074434;28;20420;-83
2021/07/26 10:10:39;;;;;;;9.43;7.67;;;19.30;99.90;;;;;;5074149;28;20416;-83
2021/07/26 10:13:07;;;;;;;10.00;8.53;;;19.50;99.90;;;;;;5056195;28;20930;-84
2021/07/26 10:15:33;;;;;;;7.00;6.13;;;19.60;99.90;;;;;;5057380;28;20461;-87
2021/07/26 10:18:00;;;;;;;11.60;6.47;;;19.50;99.90;;;;;;5075466;28;20410;-82
2021/07/26 10:20:28;;;;;;;7.63;6.70;;;19.70;99.90;;;;;;5077213;28;20418;-82
2021/07/26 10:23:05;;;;;;;8.07;7.10;;;20.00;99.90;;;;;;5074559;28;20456;-82
2021/07/26 10:25:51;;;;;;;10.37;7.00;;;20.90;99.90;;;;;;5074084;28;20528;-89
2021/07/26 10:28:31;;;;;;;8.27;5.70;;;22.90;99.90;;;;;;5056483;28;20423;-82
2021/07/26 10:30:57;;;;;;;7.07;6.27;;;23.10;99.90;;;;;;5074762;28;20417;-85
2021/07/26 10:33:23;;;;;;;5.40;4.73;;;22.90;99.90;;;;;;5074513;28;20444;-84
2021/07/26 10:35:53;;;;;;;5.27;4.80;;;22.90;99.90;;;;;;5075414;28;20469;-83
2021/07/26 10:38:44;;;;;;;5.13;4.63;;;22.40;99.90;;;;;;5075148;28;21048;-88
2021/07/26 10:41:10;;;;;;;6.47;4.70;;;21.70;99.90;;;;;;5073825;28;20410;-82
2021/07/26 10:44:00;;;;;;;5.17;4.67;;;21.30;99.90;;;;;;5073662;28;20481;-83
2021/07/26 10:46:25;;;;;;;7.13;4.60;;;21.60;99.90;;;;;;5073658;28;20505;-86
2021/07/26 10:48:52;;;;;;;6.10;5.03;;;22.00;99.90;;;;;;5073523;28;20540;-85
2021/07/26 10:51:40;;;;;;;5.77;3.93;;;22.10;99.90;;;;;;5073582;28;20603;-82
2021/07/26 10:54:08;;;;;;;4.47;3.50;;;22.50;99.90;;;;;;5072897;28;20909;-81
2021/07/26 10:57:06;;;;;;;4.87;4.47;;;23.00;99.90;;;;;;5073449;28;20560;-81
2021/07/26 11:00:06;;;;;;;4.87;4.10;;;24.20;99.90;;;;;;5073553;28;20415;-81
2021/07/26 11:02:37;;;;;;;5.47;4.90;;;24.00;99.90;;;;;;5073597;28;20427;-81
2021/07/26 11:05:27;;;;;;;4.93;3.67;;;24.40;99.90;;;;;;5073448;28;20447;-81
2021/07/26 11:08:14;;;;;;;4.10;2.70;;;25.10;99.90;;;;;;5073317;28;20466;-81
2021/07/26 11:10:53;;;;;;;3.10;2.80;;;25.60;99.90;;;;;;5073399;28;20419;-81
2021/07/26 11:13:19;;;;;;;4.27;3.23;;;26.60;99.90;;;;;;5055139;28;20441;-84
2021/07/26 11:15:49;;;;;;;3.03;2.50;;;27.10;99.90;;;;;;5073242;28;20825;-83
2021/07/26 11:18:17;;;;;;;4.40;2.43;;;27.40;99.90;;;;;;5073533;28;20559;-84
2021/07/26 11:21:12;;;;;;;4.03;3.30;;;27.40;99.90;;;;;;5073369;28;20417;-83
2021/07/26 11:23:51;;;;;;;3.70;2.40;;;27.80;99.90;;;;;;5071775;28;20793;-84
2021/07/26 11:26:28;;;;;;;3.10;2.80;;;28.20;99.90;;;;;;5055284;28;20470;-84
2021/07/26 11:28:56;;;;;;;2.40;2.00;;;28.10;99.90;;;;;;5072906;28;20414;-84
2021/07/26 11:31:26;;;;;;;2.60;2.40;;;28.30;99.90;;;;;;5073118;28;20757;-84
2021/07/26 11:33:53;;;;;;;2.47;2.20;;;28.80;99.90;;;;;;5073930;28;20498;-83
2021/07/26 11:36:22;;;;;;;2.40;2.20;;;29.10;99.90;;;;;;5073263;28;20879;-83
2021/07/26 11:39:00;;;;;;;2.90;2.33;;;29.20;99.90;;;;;;5055405;28;20414;-83
2021/07/26 11:41:26;;;;;;;2.90;2.20;;;28.90;99.90;;;;;;5073419;28;20445;-82
2021/07/26 11:43:53;;;;;;;3.00;2.57;;;29.20;99.90;;;;;;5063013;28;20424;-84
2021/07/26 11:46:20;;;;;;;3.77;2.70;;;29.10;99.90;;;;;;5061919;28;20427;-82
2021/07/26 11:48:50;;;;;;;2.90;2.53;;;29.20;99.90;;;;;;5053788;28;20431;-81
2021/07/26 11:51:44;;;;;;;2.53;2.33;;;29.40;99.90;;;;;;5058879;28;20435;-80
2021/07/26 11:54:10;;;;;;;5.77;2.57;;;29.60;99.90;;;;;;5041403;28;20426;-80
2021/07/26 11:56:36;;;;;;;4.10;2.50;;;29.90;99.90;;;;;;5045321;28;20486;-84
2021/07/26 11:59:17;;;;;;;3.43;2.70;;;30.20;99.90;;;;;;5065282;28;20181;-82
2021/07/26 12:01:48;;;;;;;4.13;2.40;;;30.20;99.90;;;;;;5067687;28;20522;-80
2021/07/26 12:04:15;;;;;;;2.87;2.47;;;30.30;99.90;;;;;;5042996;28;20477;-81
2021/07/26 12:06:52;;;;;;;2.73;2.07;;;30.60;99.90;;;;;;5059623;28;20813;-81
2021/07/26 12:09:17;;;;;;;3.10;2.57;;;30.40;99.90;;;;;;5049856;28;20945;-81
2021/07/26 12:11:43;;;;;;;2.63;2.43;;;30.70;99.90;;;;;;5072982;28;20407;-80
2021/07/26 12:14:29;;;;;;;2.60;1.90;;;30.40;99.90;;;;;;5063230;28;20184;-83
2021/07/26 12:17:04;;;;;;;4.83;2.93;;;30.20;99.90;;;;;;5059693;28;20209;-81
2021/07/26 12:19:31;;;;;;;3.10;2.60;;;30.40;99.90;;;;;;5067743;28;20416;-87
2021/07/26 12:22:11;;;;;;;2.90;2.17;;;30.40;99.90;;;;;;5038031;28;20435;-84
2021/07/26 12:24:47;;;;;;;2.60;1.90;;;30.60;99.90;;;;;;5051268;28;20539;-84
2021/07/26 12:27:27;;;;;;;2.70;2.10;;;31.10;97.90;;;;;;5051305;28;20432;-87
2021/07/26 12:30:13;;;;;;;2.97;2.10;;;30.40;98.20;;;;;;5051421;28;20411;-84
2021/07/26 12:32:50;;;;;;;4.60;2.47;;;30.10;99.90;;;;;;5051544;28;20445;-87
2021/07/26 12:35:26;;;;;;;4.43;4.03;;;30.50;97.20;;;;;;5038326;28;20454;-81
2021/07/26 12:38:16;;;;;;;7.47;6.73;;;30.50;99.90;;;;;;5068530;28;20451;-83
2021/07/26 12:41:03;;;;;;;5.67;5.17;;;30.80;99.20;;;;;;5068399;28;20420;-83
2021/07/26 12:43:28;;;;;;;3.20;2.40;;;31.10;99.90;;;;;;5065659;28;20403;-86
2021/07/26 12:45:58;;;;;;;3.07;2.77;;;31.20;94.20;;;;;;5072266;28;20852;-87